LWSK/SKP METAR and TAF weather

Enter ICAO airport designator
Station Type Date Time Source
LWSK METAR 2019/04/25 15:30 UTC NOAA

LWSK 251530Z 14005KT CAVOK 23/12 Q1020 NOSIG


Station Type Date Time Source
LWSK Decoded METAR 2019/04/25 15:30 UTC NOAA

Skopje-Petrovec, Macedonia, The Republic of (LWSK) 41-58N 021-39E 239M
Apr 25, 2019 - 11:30 AM EDT / 2019.04.25 1530 UTC
Wind: from the SE (140 degrees) at 6 MPH (5 KT):0
Visibility: greater than 7 mile(s):0
Temperature: 73 F (23 C)
Dew Point: 53 F (12 C)
Relative Humidity: 49%
Pressure (altimeter): 30.12 in. Hg (1020 hPa)
ob: LWSK 251530Z 14005KT CAVOK 23/12 Q1020 NOSIG
cycle: 15

Station Type Date Time Source
LWSK TAF 2019/04/25 15:39 UTC NOAA

TAF LWSK 251430Z 2515/2615 15008KT CAVOK

Example: see airport list